Christina O — C6FN7 — position and weather

sailwx.info

Track history (hours):
 
Tides and Currents Weather Stations Pressure Air Temp Water Temp Dewpoint Dewpoint Depression Visibility Wind Speed Wind Dir Waves Ship Positions

Christina O

Operator: V Ships Leisure SAM

Last reported at 2015-Aug-02 03:33 UTC. Time now 2015-Aug-02 04:14 UTC.
Position N 58°55' E 004°54'.

Length 186 m; draft 6.1 m.

Type: Passenger vessel. MMSI: 308322000.

Date/timePositionNaut miles runAvg speedWind from/ knotsBaromVisibWave heightAir tempDewpointWater temp
2015-Aug-02 03:33N 58°55' E 004°54'1514.6
2015-Aug-02 02:33N 59°09' E 004°47'3014.4
2015-Aug-02 00:29N 59°39' E 004°47'  
2015-Jul-30 18:33N 63°07' E 007°41'2 1.6
2015-Jul-30 17:32N 63°07' E 007°44'0 0.0
2015-Jul-30 16:32N 63°07' E 007°44'0 0.0
2015-Jul-30 15:23N 63°07' E 007°44'0 0.0
2015-Jul-30 14:20N 63°07' E 007°44'0 0.0
2015-Jul-30 13:26N 63°07' E 007°44'0 0.0
2015-Jul-30 12:26N 63°07' E 007°44'0 0.0
2015-Jul-30 11:33N 63°07' E 007°44'0 0.0
2015-Jul-30 10:33N 63°07' E 007°44'213 5.3
2015-Jul-28 18:33N 59°54' E 004°37'1515.0
2015-Jul-28 17:33N 59°38' E 004°39'1514.7
2015-Jul-28 16:33N 59°24' E 004°41'1514.6
2015-Jul-28 15:33N 59°10' E 004°47'1515.0
2015-Jul-28 14:33N 58°56' E 004°58'1515.2
2015-Jul-28 13:33N 58°42' E 005°09'1615.4
2015-Jul-28 12:33N 58°27' E 005°20'1514.7
2015-Jul-28 11:33N 58°16' E 005°38'1515.0
2015-Jul-28 10:33N 58°07' E 005°60'13814.9
2015-Jul-28 01:15N 57°49' E 010°18'1115.6
2015-Jul-28 00:33N 57°49' E 010°39'1515.0
2015-Jul-27 23:33N 57°41' E 011°02'1616.3
2015-Jul-27 22:33N 57°30' E 011°24'1615.9
2015-Jul-27 21:33N 57°15' E 011°35'1616.4
2015-Jul-27 20:33N 56°59' E 011°45'1615.8
2015-Jul-27 19:34N 56°44' E 011°54'1615.6
2015-Jul-27 18:32N 56°29' E 012°00'1515.3
2015-Jul-27 17:33N 56°15' E 012°12'1717.0
2015-Jul-27 16:34N 56°05' E 012°36'1616.3
2015-Jul-27 15:33N 55°49' E 012°44'8 8.4
2015-Jul-27 14:33N 55°42' E 012°36'0 0.0
2015-Jul-27 13:32N 55°42' E 012°36'0 0.0
2015-Jul-27 12:33N 55°42' E 012°36'0 0.0
2015-Jul-27 11:33N 55°42' E 012°36'0 0.0
2015-Jul-27 10:33N 55°42' E 012°36'0 0.0
2015-Jul-27 09:32N 55°42' E 012°36'0 0.0
2015-Jul-27 08:32N 55°42' E 012°36'0 0.0
2015-Jul-27 07:32N 55°42' E 012°36'0 0.0
2015-Jul-27 06:32N 55°42' E 012°36'0 0.0
2015-Jul-27 05:32N 55°42' E 012°36'0 0.0
2015-Jul-27 04:32N 55°42' E 012°36'0 0.0
2015-Jul-27 03:32N 55°42' E 012°36'0 0.0
2015-Jul-27 02:32N 55°42' E 012°36'0 0.0
2015-Jul-27 01:32N 55°42' E 012°36'0 0.0
2015-Jul-27 00:32N 55°42' E 012°36'0 0.0
2015-Jul-26 23:32N 55°42' E 012°36'0 0.0
2015-Jul-26 22:32N 55°42' E 012°36'0 0.0
2015-Jul-26 21:32N 55°42' E 012°36'0 0.0
2015-Jul-26 20:33N 55°42' E 012°36'0 0.0
2015-Jul-26 19:32N 55°42' E 012°36'2 1.8
2015-Jul-26 18:33N 55°43' E 012°38'1111.0
2015-Jul-26 17:33N 55°33' E 012°43'1312.8
2015-Jul-26 16:33N 55°20' E 012°40'1312.9
2015-Jul-26 15:33N 55°16' E 013°01'1413.6
2015-Jul-26 14:33N 55°15' E 013°25'1413.7
2015-Jul-26 13:31N 55°14' E 013°50'1313.7
2015-Jul-26 12:33N 55°14' E 014°13'1313.4
2015-Jul-26 11:34N 55°23' E 014°30'1413.7
2015-Jul-26 10:33N 55°32' E 014°49'1413.8
2015-Jul-26 09:33N 55°39' E 015°10'7813.0
2015-Jul-26 03:32N 56°29' E 016°57'1513.7
2015-Jul-26 02:27N 56°43' E 017°08'1213.8
2015-Jul-26 01:33N 56°54' E 017°17'1514.3
2015-Jul-26 00:30N 57°08' E 017°27'1414.5
2015-Jul-25 23:33N 57°21' E 017°37'1413.5
2015-Jul-25 22:30N 57°32' E 017°53'17 1.3
2015-Jul-25 09:23N 57°45' E 018°13'2512.9
2015-Jul-25 07:29N 58°02' E 018°48'4013.7
2015-Jul-25 04:33N 58°23' E 019°52'8714.0
2015-Jul-24 22:19N 59°19' E 022°02'1214.1
2015-Jul-24 21:30N 59°20' E 022°24'2914.0
2015-Jul-24 19:28N 59°25' E 023°19'1313.8
2015-Jul-24 18:32N 59°27' E 023°44'2814.1
2015-Jul-24 16:33N 59°31' E 024°38'6 5.5
2015-Jul-24 15:32N 59°27' E 024°46'0 0.0
2015-Jul-24 14:32N 59°27' E 024°46'0 0.0
2015-Jul-24 10:32N 59°27' E 024°46'0 0.0
2015-Jul-24 09:29N 59°27' E 024°46'0 0.0
2015-Jul-24 08:32N 59°27' E 024°46'0 0.0
2015-Jul-24 07:29N 59°27' E 024°46'0 0.0
2015-Jul-24 06:32N 59°27' E 024°46'0 0.3
2015-Jul-24 05:33N 59°27' E 024°46'1111.2
2015-Jul-24 04:34N 59°38' E 024°43'1815.7
2015-Jul-24 03:26N 59°51' E 025°07'3116.2
2015-Jul-24 01:32N 59°58' E 026°07'1616.0
2015-Jul-24 00:34N 60°01' E 026°38'1515.4
2015-Jul-23 23:33N 60°01' E 027°08'7614.6
2015-Jul-23 18:22N 59°60' E 029°40'911.5
2015-Jul-23 17:33N 59°56' E 029°57'9 8.6
2015-Jul-23 16:33N 59°54' E 030°13'2 2.2
2015-Jul-23 15:33N 59°56' E 030°16'0 0.0
2015-Jul-23 14:33N 59°56' E 030°16'0 0.0
2015-Jul-23 13:33N 59°56' E 030°16'0 0.0
2015-Jul-23 12:33N 59°56' E 030°16'0 0.0
2015-Jul-23 11:33N 59°56' E 030°16'0 0.0
2015-Jul-23 10:30N 59°56' E 030°16'0 0.0
2015-Jul-23 09:33N 59°56' E 030°16'0 0.0
2015-Jul-23 08:33N 59°56' E 030°16'0 0.0
2015-Jul-23 07:33N 59°56' E 030°16'0 0.0
2015-Jul-23 06:33N 59°56' E 030°16'0 0.0
2015-Jul-23 05:33N 59°56' E 030°16'0 0.0
2015-Jul-23 04:33N 59°56' E 030°16'  
Track history (hours):
 
Tides and Currents Weather Stations Pressure Air Temp Water Temp Dewpoint Dewpoint Depression Visibility Wind Speed Wind Dir Waves Ship Positions

Christina O

Operator: V Ships Leisure SAM

Last reported at 2015-Aug-02 03:33 UTC. Time now 2015-Aug-02 04:14 UTC.
Position N 58°55' E 004°54'.

Length 186 m; draft 6.1 m.

Type: Passenger vessel. MMSI: 308322000.

Date/timePositionNaut miles runAvg speedWind from/ knotsBaromVisibWave heightAir tempDewpointWater temp
2015-Aug-02 03:33N 58°55' E 004°54'1514.6
2015-Aug-02 02:33N 59°09' E 004°47'3014.4
2015-Aug-02 00:29N 59°39' E 004°47'  
2015-Jul-30 18:33N 63°07' E 007°41'2 1.6
2015-Jul-30 17:32N 63°07' E 007°44'0 0.0
2015-Jul-30 16:32N 63°07' E 007°44'0 0.0
2015-Jul-30 15:23N 63°07' E 007°44'0 0.0
2015-Jul-30 14:20N 63°07' E 007°44'0 0.0
2015-Jul-30 13:26N 63°07' E 007°44'0 0.0
2015-Jul-30 12:26N 63°07' E 007°44'0 0.0
2015-Jul-30 11:33N 63°07' E 007°44'0 0.0
2015-Jul-30 10:33N 63°07' E 007°44'213 5.3
2015-Jul-28 18:33N 59°54' E 004°37'1515.0
2015-Jul-28 17:33N 59°38' E 004°39'1514.7
2015-Jul-28 16:33N 59°24' E 004°41'1514.6
2015-Jul-28 15:33N 59°10' E 004°47'1515.0
2015-Jul-28 14:33N 58°56' E 004°58'1515.2
2015-Jul-28 13:33N 58°42' E 005°09'1615.4
2015-Jul-28 12:33N 58°27' E 005°20'1514.7
2015-Jul-28 11:33N 58°16' E 005°38'1515.0
2015-Jul-28 10:33N 58°07' E 005°60'13814.9
2015-Jul-28 01:15N 57°49' E 010°18'1115.6
2015-Jul-28 00:33N 57°49' E 010°39'1515.0
2015-Jul-27 23:33N 57°41' E 011°02'1616.3
2015-Jul-27 22:33N 57°30' E 011°24'1615.9
2015-Jul-27 21:33N 57°15' E 011°35'1616.4
2015-Jul-27 20:33N 56°59' E 011°45'1615.8
2015-Jul-27 19:34N 56°44' E 011°54'1615.6
2015-Jul-27 18:32N 56°29' E 012°00'1515.3
2015-Jul-27 17:33N 56°15' E 012°12'1717.0
2015-Jul-27 16:34N 56°05' E 012°36'1616.3
2015-Jul-27 15:33N 55°49' E 012°44'8 8.4
2015-Jul-27 14:33N 55°42' E 012°36'0 0.0
2015-Jul-27 13:32N 55°42' E 012°36'0 0.0
2015-Jul-27 12:33N 55°42' E 012°36'0 0.0
2015-Jul-27 11:33N 55°42' E 012°36'0 0.0
2015-Jul-27 10:33N 55°42' E 012°36'0 0.0
2015-Jul-27 09:32N 55°42' E 012°36'0 0.0
2015-Jul-27 08:32N 55°42' E 012°36'0 0.0
2015-Jul-27 07:32N 55°42' E 012°36'0 0.0
2015-Jul-27 06:32N 55°42' E 012°36'0 0.0
2015-Jul-27 05:32N 55°42' E 012°36'0 0.0
2015-Jul-27 04:32N 55°42' E 012°36'0 0.0
2015-Jul-27 03:32N 55°42' E 012°36'0 0.0
2015-Jul-27 02:32N 55°42' E 012°36'0 0.0
2015-Jul-27 01:32N 55°42' E 012°36'0 0.0
2015-Jul-27 00:32N 55°42' E 012°36'0 0.0
2015-Jul-26 23:32N 55°42' E 012°36'0 0.0
2015-Jul-26 22:32N 55°42' E 012°36'0 0.0
2015-Jul-26 21:32N 55°42' E 012°36'0 0.0
2015-Jul-26 20:33N 55°42' E 012°36'0 0.0
2015-Jul-26 19:32N 55°42' E 012°36'2 1.8
2015-Jul-26 18:33N 55°43' E 012°38'1111.0
2015-Jul-26 17:33N 55°33' E 012°43'1312.8
2015-Jul-26 16:33N 55°20' E 012°40'1312.9
2015-Jul-26 15:33N 55°16' E 013°01'1413.6
2015-Jul-26 14:33N 55°15' E 013°25'1413.7
2015-Jul-26 13:31N 55°14' E 013°50'1313.7
2015-Jul-26 12:33N 55°14' E 014°13'1313.4
2015-Jul-26 11:34N 55°23' E 014°30'1413.7
2015-Jul-26 10:33N 55°32' E 014°49'1413.8
2015-Jul-26 09:33N 55°39' E 015°10'7813.0
2015-Jul-26 03:32N 56°29' E 016°57'1513.7
2015-Jul-26 02:27N 56°43' E 017°08'1213.8
2015-Jul-26 01:33N 56°54' E 017°17'1514.3
2015-Jul-26 00:30N 57°08' E 017°27'1414.5
2015-Jul-25 23:33N 57°21' E 017°37'1413.5
2015-Jul-25 22:30N 57°32' E 017°53'17 1.3
2015-Jul-25 09:23N 57°45' E 018°13'2512.9
2015-Jul-25 07:29N 58°02' E 018°48'4013.7
2015-Jul-25 04:33N 58°23' E 019°52'8714.0
2015-Jul-24 22:19N 59°19' E 022°02'1214.1
2015-Jul-24 21:30N 59°20' E 022°24'2914.0
2015-Jul-24 19:28N 59°25' E 023°19'1313.8
2015-Jul-24 18:32N 59°27' E 023°44'2814.1
2015-Jul-24 16:33N 59°31' E 024°38'6 5.5
2015-Jul-24 15:32N 59°27' E 024°46'0 0.0
2015-Jul-24 14:32N 59°27' E 024°46'0 0.0
2015-Jul-24 10:32N 59°27' E 024°46'0 0.0
2015-Jul-24 09:29N 59°27' E 024°46'0 0.0
2015-Jul-24 08:32N 59°27' E 024°46'0 0.0
2015-Jul-24 07:29N 59°27' E 024°46'0 0.0
2015-Jul-24 06:32N 59°27' E 024°46'0 0.3
2015-Jul-24 05:33N 59°27' E 024°46'1111.2
2015-Jul-24 04:34N 59°38' E 024°43'1815.7
2015-Jul-24 03:26N 59°51' E 025°07'3116.2
2015-Jul-24 01:32N 59°58' E 026°07'1616.0
2015-Jul-24 00:34N 60°01' E 026°38'1515.4
2015-Jul-23 23:33N 60°01' E 027°08'7614.6
2015-Jul-23 18:22N 59°60' E 029°40'911.5
2015-Jul-23 17:33N 59°56' E 029°57'9 8.6
2015-Jul-23 16:33N 59°54' E 030°13'2 2.2
2015-Jul-23 15:33N 59°56' E 030°16'0 0.0
2015-Jul-23 14:33N 59°56' E 030°16'0 0.0
2015-Jul-23 13:33N 59°56' E 030°16'0 0.0
2015-Jul-23 12:33N 59°56' E 030°16'0 0.0
2015-Jul-23 11:33N 59°56' E 030°16'0 0.0
2015-Jul-23 10:30N 59°56' E 030°16'0 0.0
2015-Jul-23 09:33N 59°56' E 030°16'0 0.0
2015-Jul-23 08:33N 59°56' E 030°16'0 0.0
2015-Jul-23 07:33N 59°56' E 030°16'0 0.0
2015-Jul-23 06:33N 59°56' E 030°16'0 0.0
2015-Jul-23 05:33N 59°56' E 030°16'0 0.0
2015-Jul-23 04:33N 59°56' E 030°16'  

Dump ship's entire track history